Impacts METAR Board
IDs:

KLHB - Hearne Muni, TX, US

Updated at: 0200 UTC 15 Aug 2020
Potential Impact None Slight Moderate High
Time 14/14Z 14/15Z 14/16Z 14/17Z 14/18Z 14/19Z 14/20Z 14/21Z 14/22Z 14/23Z 15/00Z 15/01Z 15/02Z
Temp83 87 91 95 98 101 101 102 101 101 98 94 91
Dewpt75 73 72 70 67 67 66 65 66 68 69 71 71
Altim29.96 29.96 29.97 29.95 29.93 29.92 29.89 29.87 29.84 29.83 29.83 29.84 29.84
VIS10 10 10 10 10 10 10 10 10 10 10 10 10
CIG-- -- -- -- -- -- -- -- -- -- -- -- --
CoverSCTCLRCLRCLRCLRCLRCLRCLRCLRCLRCLRCLRCLR
FltCatVFRVFRVFRVFRVFRVFRVFRVFRVFRVFRVFRVFRVFR
WX--------------------------
WDir210200210240210170130140130140150150140
WSpd9 7 8 7 7 7 7 8 9 9 7 7 7
WGst14 14 -- -- -- -- -- -- -- 14 -- -- --
Raw hourly METARs
KLHB 141355Z AUTO 21009G14KT 10SM SCT014 28/24 A2996 RMK AO2 T02820238
KLHB 141455Z AUTO 20007G14KT 170V230 10SM CLR 31/23 A2996 RMK AO2 T03070229
KLHB 141555Z AUTO 21008KT 10SM CLR 33/22 A2997 RMK AO2 T03280223
KLHB 141655Z AUTO 24007KT 180V250 10SM CLR 35/21 A2995 RMK AO2 T03500212
KLHB 141755Z AUTO 21007KT 10SM CLR 37/19 A2993 RMK AO2 T03670193 10369 20252
KLHB 141855Z AUTO 17007KT 10SM CLR 38/19 A2992 RMK AO2 T03810194
KLHB 141955Z AUTO 13007KT 10SM CLR 39/19 A2989 RMK AO2 T03860188
KLHB 142055Z AUTO 14008KT 10SM CLR 39/19 A2987 RMK AO2 T03900186
KLHB 142155Z AUTO 13009KT 10SM CLR 39/19 A2984 RMK AO2 T03860189
KLHB 142255Z AUTO 14009G14KT 10SM CLR 38/20 A2983 RMK AO2 T03810202
KLHB 142355Z AUTO 15007KT 10SM CLR 37/21 A2983 RMK AO2 T03680207 10397 20367
KLHB 150055Z AUTO 15007KT 10SM CLR 34/22 A2984 RMK AO2 T03430215
KLHB 150155Z AUTO 14007KT 10SM CLR 33/22 A2984 RMK AO2 T03250219